createdAt,value
2023-02-02T00:02:10.014Z,98714.89
2023-02-02T00:04:42.490Z,98716.25
2023-02-02T00:07:14.912Z,98717.02
2023-02-02T00:09:47.397Z,98713.23
2023-02-02T00:12:19.840Z,98708.52
2023-02-02T00:14:52.467Z,98706.45
2023-02-02T00:17:25.226Z,98703.08
2023-02-02T00:19:57.627Z,98701.75
2023-02-02T00:22:30.176Z,98701.48
2023-02-02T00:25:02.626Z,98703.52
2023-02-02T00:27:35.101Z,98712.83
2023-02-02T00:30:11.037Z,98717.98
2023-02-02T00:32:43.918Z,98718.48
2023-02-02T00:35:17.003Z,98720.15
2023-02-02T00:37:49.459Z,98719.82
2023-02-02T00:40:22.548Z,98716.66
2023-02-02T00:42:56.354Z,98711.32
2023-02-02T00:45:29.069Z,98713.11
2023-02-02T00:48:01.433Z,98708.46
2023-02-02T00:50:34.497Z,98706.30
2023-02-02T00:53:07.892Z,98702.20
2023-02-02T00:55:40.318Z,98701.84
2023-02-02T00:58:13.693Z,98704.96
2023-02-02T01:00:46.447Z,98705.05
2023-02-02T01:03:19.180Z,98705.73
2023-02-02T01:05:52.187Z,98703.49
2023-02-02T01:08:24.630Z,98702.96
2023-02-02T01:11:00.244Z,98698.52
2023-02-02T01:13:32.717Z,98700.93
2023-02-02T01:16:06.105Z,98698.63
2023-02-02T01:18:38.849Z,98696.52
2023-02-02T01:21:12.731Z,98691.67
2023-02-02T01:23:45.304Z,98696.14
2023-02-02T01:26:18.741Z,98691.23
2023-02-02T01:28:51.180Z,98696.54
2023-02-02T01:31:25.081Z,98693.95
2023-02-02T01:33:57.618Z,98695.56
2023-02-02T01:36:30.303Z,98691.80
2023-02-02T01:39:03.937Z,98692.38
2023-02-02T01:41:36.410Z,98692.57
2023-02-02T01:44:23.181Z,98690.30
2023-02-02T01:46:55.740Z,98691.67
2023-02-02T01:49:28.644Z,98688.20
2023-02-02T01:52:02.583Z,98690.89
2023-02-02T01:54:39.767Z,98689.66
2023-02-02T01:57:16.777Z,98687.65
2023-02-02T01:59:51.294Z,98685.71
2023-02-02T02:02:24.484Z,98683.23
2023-02-02T02:04:58.217Z,98684.60
2023-02-02T02:07:30.794Z,98687.51
2023-02-02T02:10:03.300Z,98687.41
2023-02-02T02:12:36.359Z,98691.73
2023-02-02T02:15:30.619Z,98684.73
2023-02-02T02:18:17.226Z,98686.64
2023-02-02T02:21:34.411Z,98683.40
2023-02-02T02:24:53.546Z,98677.90
2023-02-02T02:28:00.807Z,98681.02
2023-02-02T02:30:49.642Z,98681.99
2023-02-02T02:33:30.938Z,98679.83
2023-02-02T02:36:16.611Z,98680.83
2023-02-02T02:38:53.760Z,98680.95
2023-02-02T02:41:33.928Z,98681.50
2023-02-02T02:44:11.100Z,98685.16
2023-02-02T02:46:44.053Z,98685.77
2023-02-02T02:49:17.286Z,98689.61
2023-02-02T02:51:51.613Z,98693.43
2023-02-02T02:54:32.564Z,98696.55
2023-02-02T02:57:23.635Z,98695.58
2023-02-02T03:00:05.129Z,98692.97
2023-02-02T03:02:49.053Z,98692.30
2023-02-02T03:05:33.044Z,98689.44
2023-02-02T03:08:12.950Z,98691.16
2023-02-02T03:10:47.524Z,98686.59
2023-02-02T03:13:20.568Z,98688.73
2023-02-02T03:15:53.172Z,98686.46
2023-02-02T03:18:28.817Z,98688.92
2023-02-02T03:21:01.650Z,98689.02
2023-02-02T03:23:34.618Z,98689.85
2023-02-02T03:26:07.805Z,98687.02
2023-02-02T03:28:40.488Z,98689.36
2023-02-02T03:31:13.150Z,98684.36
2023-02-02T03:33:45.920Z,98681.60
2023-02-02T03:36:18.361Z,98683.30
2023-02-02T03:38:50.975Z,98680.98
2023-02-02T03:41:23.352Z,98681.57
2023-02-02T03:43:56.184Z,98677.89
2023-02-02T03:46:28.852Z,98676.58
2023-02-02T03:49:01.210Z,98675.67
2023-02-02T03:51:33.710Z,98683.05
2023-02-02T03:54:06.148Z,98682.08
2023-02-02T03:56:38.687Z,98684.09
2023-02-02T03:59:11.139Z,98688.77
2023-02-02T04:01:43.574Z,98685.11
2023-02-02T04:04:16.065Z,98684.29
2023-02-02T04:06:48.563Z,98681.92
2023-02-02T04:09:21.637Z,98684.89
2023-02-02T04:11:54.217Z,98680.17
2023-02-02T04:14:26.656Z,98680.73
2023-02-02T04:16:59.160Z,98680.73
2023-02-02T04:19:31.584Z,98677.40
2023-02-02T04:22:04.010Z,98676.49
2023-02-02T04:24:38.041Z,98674.88
2023-02-02T04:27:10.600Z,98670.78
2023-02-02T04:29:42.968Z,98670.68
2023-02-02T04:32:17.852Z,98667.79
2023-02-02T04:34:50.325Z,98672.08
2023-02-02T04:37:22.751Z,98671.63
2023-02-02T04:39:55.544Z,98675.27
2023-02-02T04:42:28.084Z,98671.05
2023-02-02T04:45:00.611Z,98668.21
2023-02-02T04:47:33.095Z,98673.44
2023-02-02T04:50:05.920Z,98672.04
2023-02-02T04:52:38.423Z,98671.52
2023-02-02T04:55:11.780Z,98670.45
2023-02-02T04:57:44.283Z,98670.61
2023-02-02T05:00:19.561Z,98670.61
2023-02-02T05:02:52.085Z,98669.36
2023-02-02T05:05:24.865Z,98671.17
2023-02-02T05:07:57.447Z,98667.58
2023-02-02T05:10:30.050Z,98665.90
2023-02-02T05:13:02.510Z,98659.48
2023-02-02T05:15:35.056Z,98659.45
2023-02-02T05:18:07.531Z,98660.14
2023-02-02T05:20:39.913Z,98669.07
2023-02-02T05:23:12.308Z,98662.11
2023-02-02T05:25:44.778Z,98664.06
2023-02-02T05:28:17.186Z,98668.59
2023-02-02T05:30:49.971Z,98669.41
2023-02-02T05:33:22.431Z,98673.67
2023-02-02T05:35:55.136Z,98668.16
2023-02-02T05:38:27.616Z,98673.20
2023-02-02T05:41:00.103Z,98677.77
2023-02-02T05:43:34.154Z,98677.55
2023-02-02T05:46:07.096Z,98679.13
2023-02-02T05:48:39.440Z,98678.92
2023-02-02T05:51:17.268Z,98681.98
2023-02-02T05:53:49.686Z,98681.95
2023-02-02T05:56:22.135Z,98682.44
2023-02-02T05:58:54.481Z,98682.52
2023-02-02T06:01:26.830Z,98680.22
2023-02-02T06:03:59.220Z,98684.34
2023-02-02T06:06:31.735Z,98682.65
2023-02-02T06:09:04.383Z,98685.05
2023-02-02T06:11:37.427Z,98684.80
2023-02-02T06:14:09.955Z,98686.98
2023-02-02T06:16:42.348Z,98688.52
2023-02-02T06:19:14.928Z,98690.02
2023-02-02T06:21:47.453Z,98684.66
2023-02-02T06:24:20.013Z,98693.49
2023-02-02T06:26:52.533Z,98692.25
2023-02-02T06:29:25.356Z,98691.33
2023-02-02T06:31:57.814Z,98693.56
2023-02-02T06:34:30.454Z,98700.60
2023-02-02T06:37:02.775Z,98703.06
2023-02-02T06:39:35.295Z,98705.55
2023-02-02T06:42:20.267Z,98709.91
2023-02-02T06:44:53.099Z,98712.02
2023-02-02T06:47:26.977Z,98708.72
2023-02-02T06:49:59.482Z,98712.89
2023-02-02T06:52:31.888Z,98714.69
2023-02-02T06:55:04.377Z,98722.13
2023-02-02T06:57:36.882Z,98723.05
2023-02-02T07:00:14.195Z,98728.30
2023-02-02T07:02:49.010Z,98733.65
2023-02-02T07:05:24.219Z,98740.39
2023-02-02T07:07:56.969Z,98743.02
2023-02-02T07:11:13.182Z,98746.58
2023-02-02T07:13:21.741Z,98749.58
2023-02-02T07:15:54.821Z,98754.70
2023-02-02T07:18:27.383Z,98759.32
2023-02-02T07:21:01.607Z,98762.34
2023-02-02T07:23:35.153Z,98770.89
2023-02-02T07:26:09.692Z,98772.84
2023-02-02T07:28:42.121Z,98775.84
2023-02-02T07:31:19.723Z,98778.21
2023-02-02T07:33:54.458Z,98781.80
2023-02-02T07:36:27.794Z,98785.08
2023-02-02T07:39:02.466Z,98787.35
2023-02-02T07:41:37.038Z,98796.33
2023-02-02T07:44:15.518Z,98800.73
2023-02-02T07:46:48.980Z,98802.67
2023-02-02T07:49:21.615Z,98806.77
2023-02-02T07:51:53.953Z,98814.89
2023-02-02T07:54:26.561Z,98815.89
2023-02-02T07:57:01.109Z,98818.49
2023-02-02T07:59:33.587Z,98824.32
2023-02-02T08:02:06.021Z,98826.80
2023-02-02T08:04:38.440Z,98834.28
2023-02-02T08:07:11.420Z,98836.67
2023-02-02T08:09:49.372Z,98838.87
2023-02-02T08:12:24.813Z,98842.95
2023-02-02T08:14:59.220Z,98845.66
2023-02-02T08:17:31.640Z,98845.53
2023-02-02T08:20:04.048Z,98851.83
2023-02-02T08:22:36.417Z,98852.27
2023-02-02T08:25:10.361Z,98858.48
2023-02-02T08:27:42.708Z,98863.59
2023-02-02T08:30:16.939Z,98867.20
2023-02-02T08:32:49.490Z,98870.77
2023-02-02T08:35:22.095Z,98875.61
2023-02-02T08:37:54.644Z,98875.86
2023-02-02T08:40:27.107Z,98882.92
2023-02-02T08:43:00.023Z,98885.09
2023-02-02T08:46:01.941Z,98890.50
2023-02-02T08:48:24.897Z,98892.46
2023-02-02T08:50:58.712Z,98898.27
2023-02-02T08:53:31.740Z,98908.12
2023-02-02T08:56:06.774Z,98909.37
2023-02-02T08:58:39.461Z,98914.13
2023-02-02T09:01:17.216Z,98918.33
2023-02-02T09:03:50.610Z,98923.11
2023-02-02T09:06:26.829Z,98929.89
2023-02-02T09:08:59.578Z,98930.16
2023-02-02T09:11:32.079Z,98934.07
2023-02-02T09:14:06.828Z,98940.54
2023-02-02T09:16:39.615Z,98943.02
2023-02-02T09:19:13.088Z,98944.89
2023-02-02T09:21:45.484Z,98952.48
2023-02-02T09:24:18.191Z,98958.58
2023-02-02T09:26:50.658Z,98964.95
2023-02-02T09:29:23.332Z,98965.09
2023-02-02T09:31:55.906Z,98971.33
2023-02-02T09:34:28.525Z,98972.58
2023-02-02T09:37:00.952Z,98978.52
2023-02-02T09:39:33.532Z,98980.37
2023-02-02T09:42:23.103Z,98988.61
2023-02-02T09:45:07.442Z,98991.02
2023-02-02T09:47:55.538Z,99001.52
2023-02-02T09:50:44.179Z,99007.48
2023-02-02T09:53:33.906Z,99014.41
2023-02-02T09:56:13.753Z,99017.39
2023-02-02T09:58:54.143Z,99021.96
2023-02-02T10:01:31.976Z,99025.85
2023-02-02T10:04:11.694Z,99031.30
2023-02-02T10:06:45.893Z,99050.94
2023-02-02T10:09:32.776Z,99060.81
2023-02-02T10:12:16.634Z,99072.63
2023-02-02T10:14:55.727Z,99075.84
2023-02-02T10:17:40.097Z,99081.30
2023-02-02T10:20:29.543Z,99084.88
2023-02-02T10:23:13.347Z,99087.94
2023-02-02T10:25:56.259Z,99096.27
2023-02-02T10:28:45.580Z,99105.11
2023-02-02T10:31:32.942Z,99104.91
2023-02-02T10:34:15.979Z,99108.95
2023-02-02T10:37:24.318Z,99117.66
2023-02-02T10:40:21.528Z,99125.52
2023-02-02T10:43:24.362Z,99134.50
2023-02-02T10:45:58.005Z,99143.02
2023-02-02T10:48:35.980Z,99148.59
2023-02-02T10:51:17.606Z,99157.27
2023-02-02T10:53:53.774Z,99162.94
2023-02-02T10:56:32.469Z,99170.44
2023-02-02T10:59:11.292Z,99180.71
2023-02-02T11:01:43.929Z,99190.13
2023-02-02T11:04:41.650Z,99199.59
2023-02-02T11:07:20.625Z,99206.80
2023-02-02T11:09:53.920Z,99207.66
2023-02-02T11:12:32.276Z,99212.37
2023-02-02T11:15:09.414Z,99211.83
2023-02-02T11:17:41.829Z,99219.01
2023-02-02T11:20:26.977Z,99219.80
2023-02-02T11:23:08.106Z,99220.71
2023-02-02T11:25:41.526Z,99224.04
2023-02-02T11:28:25.010Z,99228.48
2023-02-02T11:30:58.243Z,99230.35
2023-02-02T11:33:33.734Z,99238.67
2023-02-02T11:36:19.642Z,99239.09
2023-02-02T11:39:12.136Z,99241.70
2023-02-02T11:41:44.721Z,99244.59
2023-02-02T11:44:25.691Z,99256.81
2023-02-02T11:46:58.655Z,99259.73
2023-02-02T11:49:33.333Z,99257.90
2023-02-02T11:52:08.806Z,99263.19
2023-02-02T11:54:46.271Z,99267.31
2023-02-02T11:57:22.440Z,99270.34
2023-02-02T12:00:17.623Z,99272.58
2023-02-02T12:02:50.801Z,99277.50
2023-02-02T12:05:38.179Z,99284.63
2023-02-02T12:08:14.210Z,99288.73
2023-02-02T12:10:52.968Z,99292.73
2023-02-02T12:13:47.694Z,99300.55
2023-02-02T12:16:34.270Z,99306.61
2023-02-02T12:19:25.430Z,99312.15
2023-02-02T12:22:05.863Z,99313.36
2023-02-02T12:24:46.838Z,99314.47
2023-02-02T12:27:29.629Z,99326.99
2023-02-02T12:30:19.540Z,99327.70
2023-02-02T12:33:19.306Z,99342.72
2023-02-02T12:36:08.676Z,99358.64
2023-02-02T12:38:57.891Z,99363.63
2023-02-02T12:41:43.631Z,99365.20
2023-02-02T12:44:24.799Z,99370.48
2023-02-02T12:47:10.055Z,99370.52
2023-02-02T12:50:00.215Z,99369.21
2023-02-02T12:52:53.705Z,99367.95
2023-02-02T12:55:35.771Z,99382.28
2023-02-02T12:58:19.610Z,99391.70
2023-02-02T13:01:25.112Z,99395.24
2023-02-02T13:04:17.836Z,99399.67
2023-02-02T13:07:20.420Z,99410.23
2023-02-02T13:10:03.283Z,99416.40
2023-02-02T13:12:42.650Z,99420.12
2023-02-02T13:15:22.393Z,99420.61
2023-02-02T13:17:58.379Z,99424.10
2023-02-02T13:20:41.581Z,99431.41
2023-02-02T13:23:20.268Z,99431.56
2023-02-02T13:25:58.411Z,99433.45
2023-02-02T13:28:42.819Z,99439.38
2023-02-02T13:31:20.866Z,99440.16
2023-02-02T13:34:02.412Z,99447.73
2023-02-02T13:36:39.108Z,99451.35
2023-02-02T13:39:21.415Z,99457.10
2023-02-02T13:41:55.809Z,99460.04
2023-02-02T13:44:33.921Z,99466.39
2023-02-02T13:47:12.868Z,99473.84
2023-02-02T13:49:51.129Z,99479.59
2023-02-02T13:52:50.493Z,99483.27
2023-02-02T13:55:51.234Z,99489.17
2023-02-02T13:58:50.707Z,99489.46
2023-02-02T14:01:25.216Z,99494.45
2023-02-02T14:04:00.667Z,99498.42
2023-02-02T14:06:57.091Z,99503.67
2023-02-02T14:09:32.172Z,99510.95
2023-02-02T14:12:04.075Z,99517.02
2023-02-02T14:14:40.047Z,99519.10
2023-02-02T14:17:51.917Z,99520.91
2023-02-02T14:20:50.674Z,99529.29
2023-02-02T14:23:53.964Z,99529.84
2023-02-02T14:26:48.195Z,99540.27
2023-02-02T14:30:02.077Z,99547.75
2023-02-02T14:32:44.120Z,99557.96
2023-02-02T14:35:52.422Z,99567.23
2023-02-02T14:38:40.771Z,99572.48
2023-02-02T14:41:40.187Z,99582.33
2023-02-02T14:44:12.738Z,99595.29
2023-02-02T14:46:49.370Z,99608.38
2023-02-02T14:49:27.160Z,99613.33
2023-02-02T14:52:05.538Z,99620.02
2023-02-02T14:54:42.378Z,99624.81
2023-02-02T14:57:27.698Z,99632.50
2023-02-02T15:00:01.865Z,99643.14
2023-02-02T15:02:38.873Z,99653.61
2023-02-02T15:05:44.075Z,99661.42
2023-02-02T15:08:32.784Z,99675.79
2023-02-02T15:11:29.115Z,99681.41
2023-02-02T15:14:11.825Z,99696.02
2023-02-02T15:16:46.866Z,99706.28
2023-02-02T15:19:32.473Z,99707.97
2023-02-02T15:22:26.899Z,99713.14
2023-02-02T15:25:04.179Z,99721.19
2023-02-02T15:27:48.052Z,99726.33
2023-02-02T15:30:30.342Z,99738.44
2023-02-02T15:33:08.361Z,99747.16
2023-02-02T15:35:41.201Z,99753.84
2023-02-02T15:38:20.493Z,99757.39
2023-02-02T15:40:54.363Z,99762.66
2023-02-02T15:43:30.647Z,99774.20
2023-02-02T15:46:08.142Z,99784.27
2023-02-02T15:48:40.919Z,99790.59
2023-02-02T15:51:22.100Z,99799.08
2023-02-02T15:53:54.986Z,99803.28
2023-02-02T15:56:32.503Z,99808.90
2023-02-02T15:59:05.504Z,99811.34
2023-02-02T16:01:48.959Z,99812.58
2023-02-02T16:04:25.556Z,99821.23
2023-02-02T16:06:59.197Z,99826.21
2023-02-02T16:09:37.153Z,99835.38
2023-02-02T16:12:18.715Z,99842.26
2023-02-02T16:14:53.713Z,99847.05
2023-02-02T16:17:30.889Z,99854.23
2023-02-02T16:20:08.883Z,99863.64
2023-02-02T16:22:45.879Z,99870.66
2023-02-02T16:25:23.964Z,99877.41
2023-02-02T16:27:56.860Z,99883.61
2023-02-02T16:30:32.313Z,99888.56
2023-02-02T16:33:32.007Z,99898.08
2023-02-02T16:36:12.377Z,99905.25
2023-02-02T16:38:45.109Z,99911.29
2023-02-02T16:41:29.095Z,99925.45
2023-02-02T16:44:31.718Z,99933.08
2023-02-02T16:47:06.017Z,99937.34
2023-02-02T16:49:39.477Z,99945.17
2023-02-02T16:52:18.728Z,99949.97
2023-02-02T16:54:56.327Z,99954.28
2023-02-02T16:57:34.316Z,99958.44
2023-02-02T17:00:19.660Z,99964.45
2023-02-02T17:02:58.225Z,99974.40
2023-02-02T17:05:33.296Z,99976.23
2023-02-02T17:08:08.533Z,99980.29
2023-02-02T17:10:43.278Z,99988.20
2023-02-02T17:13:38.653Z,99997.21
2023-02-02T17:16:14.644Z,100009.90
2023-02-02T17:18:47.629Z,100017.35
2023-02-02T17:21:23.866Z,100026.77
2023-02-02T17:23:56.887Z,100032.19
2023-02-02T17:26:35.110Z,100042.52
2023-02-02T17:29:07.668Z,100052.27
2023-02-02T17:31:40.409Z,100059.71
2023-02-02T17:34:15.659Z,100067.57
2023-02-02T17:36:48.128Z,100072.43
2023-02-02T17:39:20.587Z,100080.21
2023-02-02T17:41:52.952Z,100079.35
2023-02-02T17:44:25.438Z,100085.46
2023-02-02T17:46:57.861Z,100092.65
2023-02-02T17:49:30.251Z,100098.52
2023-02-02T17:52:02.764Z,100103.35
2023-02-02T17:54:35.317Z,100104.17
2023-02-02T17:57:07.775Z,100108.02
2023-02-02T17:59:40.255Z,100113.84
2023-02-02T18:02:16.708Z,100112.33
2023-02-02T18:04:49.227Z,100119.96
2023-02-02T18:07:21.672Z,100128.61
2023-02-02T18:09:54.093Z,100135.91
2023-02-02T18:12:27.002Z,100139.59
2023-02-02T18:14:59.350Z,100145.66
2023-02-02T18:17:33.990Z,100147.91
2023-02-02T18:20:09.259Z,100149.17
2023-02-02T18:22:40.135Z,100156.56
2023-02-02T18:25:13.018Z,100162.08
2023-02-02T18:27:45.604Z,100164.31
2023-02-02T18:30:18.369Z,100165.55
2023-02-02T18:32:50.869Z,100172.20
2023-02-02T18:35:23.656Z,100173.35
2023-02-02T18:37:56.616Z,100175.33
2023-02-02T18:40:29.240Z,100183.25
2023-02-02T18:43:01.709Z,100185.73
2023-02-02T18:45:34.223Z,100186.17
2023-02-02T18:48:06.773Z,100191.34
2023-02-02T18:50:39.944Z,100201.11
2023-02-02T18:53:12.322Z,100205.52
2023-02-02T18:55:44.764Z,100213.02
2023-02-02T18:58:17.551Z,100222.97
2023-02-02T19:00:50.274Z,100224.96
2023-02-02T19:03:22.876Z,100231.39
2023-02-02T19:06:12.901Z,100235.81
2023-02-02T19:08:45.262Z,100245.89
2023-02-02T19:11:20.754Z,100250.41
2023-02-02T19:13:53.274Z,100255.83
2023-02-02T19:16:29.043Z,100257.01
2023-02-02T19:19:07.166Z,100260.84
2023-02-02T19:21:41.428Z,100258.16
2023-02-02T19:24:15.397Z,100262.10
2023-02-02T19:26:50.722Z,100265.83
2023-02-02T19:29:25.259Z,100273.59
2023-02-02T19:32:03.495Z,100274.26
2023-02-02T19:34:36.469Z,100276.98
2023-02-02T19:37:22.332Z,100285.23
2023-02-02T19:39:57.533Z,100290.42
2023-02-02T19:42:30.944Z,100289.72
2023-02-02T19:45:03.668Z,100291.73
2023-02-02T19:47:39.460Z,100296.45
2023-02-02T19:50:20.680Z,100299.93
2023-02-02T19:52:54.628Z,100302.09
2023-02-02T19:55:29.757Z,100299.82
2023-02-02T19:58:02.516Z,100307.42
2023-02-02T20:00:38.978Z,100310.68
2023-02-02T20:03:16.005Z,100309.16
2023-02-02T20:05:50.359Z,100313.09
2023-02-02T20:08:26.358Z,100310.73
2023-02-02T20:11:02.681Z,100305.27
2023-02-02T20:13:44.883Z,100309.63
2023-02-02T20:16:21.821Z,100313.48
2023-02-02T20:18:56.503Z,100314.62
2023-02-02T20:21:36.103Z,100323.90
2023-02-02T20:24:19.058Z,100323.56
2023-02-02T20:26:52.520Z,100328.89
2023-02-02T20:29:28.041Z,100332.84
2023-02-02T20:32:01.290Z,100340.52
2023-02-02T20:34:36.559Z,100343.59
2023-02-02T20:37:23.429Z,100348.58
2023-02-02T20:39:58.897Z,100356.69
2023-02-02T20:42:31.927Z,100356.17
2023-02-02T20:45:04.565Z,100360.17
2023-02-02T20:47:37.036Z,100366.78
2023-02-02T20:50:11.207Z,100372.30
2023-02-02T20:52:44.645Z,100372.55
2023-02-02T20:55:17.258Z,100380.32
2023-02-02T20:57:49.750Z,100381.19
2023-02-02T21:00:27.131Z,100381.70
2023-02-02T21:02:59.957Z,100393.38
2023-02-02T21:05:32.620Z,100398.02
2023-02-02T21:08:05.443Z,100404.38
2023-02-02T21:10:38.149Z,100412.23
2023-02-02T21:13:10.522Z,100418.86
2023-02-02T21:15:43.103Z,100421.46
2023-02-02T21:18:15.678Z,100424.08
2023-02-02T21:20:48.150Z,100424.13
2023-02-02T21:23:21.753Z,100422.55
2023-02-02T21:25:54.181Z,100429.34
2023-02-02T21:28:26.724Z,100428.67
2023-02-02T21:30:59.226Z,100426.40
2023-02-02T21:33:31.900Z,100422.11
2023-02-02T21:36:14.597Z,100426.89
2023-02-02T21:38:47.431Z,100428.00
2023-02-02T21:41:19.989Z,100430.58
2023-02-02T21:43:52.457Z,100439.09
2023-02-02T21:46:36.564Z,100446.38
2023-02-02T21:49:19.068Z,100455.06
2023-02-02T21:51:52.214Z,100462.50
2023-02-02T21:54:26.752Z,100470.21
2023-02-02T21:57:01.096Z,100475.20
2023-02-02T21:59:37.863Z,100484.77
2023-02-02T22:02:37.191Z,100480.19
2023-02-02T22:05:20.555Z,100473.79
2023-02-02T22:07:54.577Z,100476.05
2023-02-02T22:10:36.077Z,100481.56
2023-02-02T22:13:17.791Z,100487.06
2023-02-02T22:15:52.907Z,100493.33
2023-02-02T22:18:25.087Z,100494.36
2023-02-02T22:20:57.794Z,100501.41
2023-02-02T22:23:30.654Z,100509.98
2023-02-02T22:26:03.140Z,100507.42
2023-02-02T22:28:41.080Z,100512.01
2023-02-02T22:31:13.580Z,100519.23
2023-02-02T22:33:46.109Z,100518.93
2023-02-02T22:36:18.584Z,100522.52
2023-02-02T22:38:51.147Z,100519.71
2023-02-02T22:41:23.664Z,100517.13
2023-02-02T22:43:56.137Z,100514.84
2023-02-02T22:46:28.678Z,100514.48
2023-02-02T22:49:01.146Z,100510.16
2023-02-02T22:51:33.618Z,100513.73
2023-02-02T22:54:06.189Z,100516.23
2023-02-02T22:56:38.696Z,100513.02
2023-02-02T22:59:11.255Z,100506.48
2023-02-02T23:01:43.930Z,100505.02
2023-02-02T23:04:16.464Z,100508.59
2023-02-02T23:06:49.033Z,100515.03
2023-02-02T23:09:21.475Z,100519.77
2023-02-02T23:11:54.008Z,100522.91
2023-02-02T23:14:26.693Z,100524.70
2023-02-02T23:16:59.246Z,100523.55
2023-02-02T23:19:31.818Z,100525.90
2023-02-02T23:22:04.370Z,100529.36
2023-02-02T23:24:36.878Z,100529.55
2023-02-02T23:27:09.298Z,100530.86
2023-02-02T23:29:41.869Z,100527.91
2023-02-02T23:32:14.453Z,100533.39
2023-02-02T23:34:47.031Z,100541.00
2023-02-02T23:37:19.564Z,100542.98
2023-02-02T23:39:52.006Z,100548.77
2023-02-02T23:42:25.823Z,100545.50
2023-02-02T23:44:58.366Z,100549.80
2023-02-02T23:47:30.867Z,100553.19
2023-02-02T23:50:06.185Z,100559.52
2023-02-02T23:52:39.480Z,100559.29
2023-02-02T23:55:13.606Z,100560.83
2023-02-02T23:57:46.296Z,100565.15
